Main page
METAR-TAF:

METAR-TAF

Airports :

Pápa, Hungary

latitude: 47-12N, longitude: 017-30E, elevation: 145 m

Current weather observation

The report was made 38 minutes ago, at 02:45 UTC
Calm wind
Temperature 16°C
Humidity 94%
Pressure 1017 hPa
Visibility 10 km or more
no clouds below 1500 m and no cumulonimbus

METAR: LHPA 200245Z 00000KT CAVOK 16/15 Q1017 NOSIG RMK BLU

Time: 05:23 (03:23 UTC)

Forecast

The report was made 4 hours and 8 minutes ago, at 23:15 UTC
Forecast valid from 20 at 00 UTC to 20 at 24 UTC
Wind 3 kt from variable directions
Visibility 10 km or more
no clouds below 1500 m and no cumulonimbus
Temporary
from 20 at 10 UTC to 20 at 18 UTC
Visibility 10 km or more
Scattered clouds at a height of 5000 ft, Towering cumulus.

TAF: LHPA 192315Z 2000/2024 VRB03KT CAVOK TEMPO 2010/2018 9999 SCT050TCU

Weather observations and forecasts of more than 4000 airports (METAR and TAF reports).

The available stations are represented by yellow and red dots on the map.

Hover mouse over dot to see the name of the station.

Then click to see weather observations and forecasts.

To change the map : click on the green buttons with a black cross to zoom in, on the green button with a dash to zoom out, or on the green arrows for adjacent maps.


METAR-TAF: